createdAt,value
2019-06-27T00:01:18.472Z,25.80
2019-06-27T00:03:49.865Z,25.80
2019-06-27T00:06:20.982Z,25.70
2019-06-27T00:08:53.226Z,25.70
2019-06-27T00:11:24.342Z,25.70
2019-06-27T00:13:55.656Z,25.60
2019-06-27T00:16:26.568Z,25.60
2019-06-27T00:18:57.609Z,25.60
2019-06-27T00:21:28.828Z,25.60
2019-06-27T00:24:05.972Z,25.60
2019-06-27T00:26:37.431Z,25.60
2019-06-27T00:29:08.648Z,25.50
2019-06-27T00:31:39.913Z,25.60
2019-06-27T00:34:11.138Z,25.60
2019-06-27T00:36:42.269Z,25.60
2019-06-27T00:39:13.273Z,25.60
2019-06-27T00:41:44.496Z,25.70
2019-06-27T00:44:15.646Z,25.60
2019-06-27T00:46:46.859Z,25.70
2019-06-27T00:49:17.809Z,25.60
2019-06-27T00:51:48.898Z,25.60
2019-06-27T00:54:20.077Z,25.60
2019-06-27T00:56:51.381Z,25.50
2019-06-27T00:59:22.491Z,25.40
2019-06-27T01:01:53.682Z,25.40
2019-06-27T01:04:24.985Z,25.30
2019-06-27T01:06:56.150Z,25.30
2019-06-27T01:09:28.842Z,25.30
2019-06-27T01:11:59.830Z,25.30
2019-06-27T01:14:30.908Z,25.30
2019-06-27T01:17:01.928Z,25.40
2019-06-27T01:19:34.121Z,25.30
2019-06-27T01:22:05.181Z,25.40
2019-06-27T01:24:36.230Z,25.40
2019-06-27T01:27:06.934Z,25.30
2019-06-27T01:29:38.210Z,25.30
2019-06-27T01:32:09.878Z,25.20
2019-06-27T01:34:41.179Z,25.20
2019-06-27T01:37:12.261Z,25.30
2019-06-27T01:39:44.576Z,25.20
2019-06-27T01:42:15.682Z,25.20
2019-06-27T01:44:54.411Z,25.20
2019-06-27T01:47:25.507Z,25.10
2019-06-27T01:49:56.528Z,25.10
2019-06-27T01:52:27.630Z,25.10
2019-06-27T01:55:01.555Z,25.10
2019-06-27T01:57:45.665Z,25.00
2019-06-27T02:00:06.411Z,25.10
2019-06-27T02:02:37.579Z,25.10
2019-06-27T02:05:09.157Z,25.10
2019-06-27T02:07:40.420Z,25.10
2019-06-27T02:10:11.978Z,25.10
2019-06-27T02:12:42.927Z,25.20
2019-06-27T02:15:14.994Z,25.30
2019-06-27T02:17:46.118Z,25.30
2019-06-27T02:20:17.965Z,25.30
2019-06-27T02:22:49.231Z,25.30
2019-06-27T02:25:20.587Z,25.20
2019-06-27T02:28:03.088Z,25.30
2019-06-27T02:30:39.075Z,25.20
2019-06-27T02:33:10.565Z,25.20
2019-06-27T02:35:42.116Z,25.20
2019-06-27T02:38:16.619Z,25.10
2019-06-27T02:40:47.858Z,25.10
2019-06-27T02:43:18.934Z,25.10
2019-06-27T02:45:50.084Z,25.10
2019-06-27T02:48:21.178Z,25.10
2019-06-27T02:50:52.410Z,25.10
2019-06-27T02:53:23.627Z,25.20
2019-06-27T02:55:54.790Z,25.20
2019-06-27T02:58:31.319Z,25.30
2019-06-27T03:00:58.636Z,25.30
2019-06-27T03:03:29.655Z,25.10
2019-06-27T03:06:00.856Z,25.00
2019-06-27T03:08:32.080Z,25.00
2019-06-27T03:11:04.207Z,25.00
2019-06-27T03:13:35.303Z,25.10
2019-06-27T03:16:06.609Z,25.10
2019-06-27T03:18:37.646Z,25.10
2019-06-27T03:21:08.501Z,25.00
2019-06-27T03:23:39.583Z,25.00
2019-06-27T03:26:11.718Z,25.00
2019-06-27T03:28:52.087Z,24.90
2019-06-27T03:31:15.620Z,24.80
2019-06-27T03:33:46.722Z,24.80
2019-06-27T03:36:18.152Z,24.80
2019-06-27T03:38:49.244Z,24.80
2019-06-27T03:41:22.408Z,24.80
2019-06-27T03:43:53.930Z,24.80
2019-06-27T03:46:25.207Z,24.80
2019-06-27T03:48:56.289Z,24.80
2019-06-27T03:51:27.581Z,24.80
2019-06-27T03:53:58.614Z,24.70
2019-06-27T03:56:29.826Z,24.70
2019-06-27T03:59:12.071Z,24.70
2019-06-27T04:01:34.416Z,24.60
2019-06-27T04:04:05.623Z,24.60
2019-06-27T04:06:36.844Z,24.70
2019-06-27T04:09:07.981Z,24.60
2019-06-27T04:11:39.340Z,24.60
2019-06-27T04:14:10.178Z,24.60
2019-06-27T04:16:41.403Z,24.60
2019-06-27T04:19:12.434Z,24.60
2019-06-27T04:21:43.644Z,24.60
2019-06-27T04:24:15.084Z,24.60
2019-06-27T04:26:46.225Z,24.50
2019-06-27T04:29:32.921Z,24.40
2019-06-27T04:31:50.255Z,24.50
2019-06-27T04:34:21.427Z,24.50
2019-06-27T04:36:52.711Z,24.50
2019-06-27T04:39:23.833Z,24.50
2019-06-27T04:41:55.023Z,24.50
2019-06-27T04:44:26.118Z,24.50
2019-06-27T04:46:57.206Z,24.50
2019-06-27T04:49:28.347Z,24.50
2019-06-27T04:52:00.269Z,24.50
2019-06-27T04:54:31.363Z,24.50
2019-06-27T04:57:02.536Z,24.50
2019-06-27T04:59:51.816Z,24.60
2019-06-27T05:02:06.270Z,24.60
2019-06-27T05:04:37.402Z,24.60
2019-06-27T05:07:08.151Z,24.60
2019-06-27T05:09:41.624Z,24.60
2019-06-27T05:12:12.838Z,24.70
2019-06-27T05:14:43.860Z,24.60
2019-06-27T05:17:15.028Z,24.70
2019-06-27T05:19:46.278Z,24.70
2019-06-27T05:22:17.301Z,24.80
2019-06-27T05:24:48.416Z,24.70
2019-06-27T05:27:19.711Z,24.80
2019-06-27T05:29:50.834Z,24.80
2019-06-27T05:32:22.166Z,24.90
2019-06-27T05:34:53.255Z,24.90
2019-06-27T05:37:24.660Z,25.00
2019-06-27T05:39:55.787Z,25.10
2019-06-27T05:42:27.046Z,25.10
2019-06-27T05:44:58.174Z,25.20
2019-06-27T05:47:29.276Z,25.20
2019-06-27T05:50:00.480Z,25.30
2019-06-27T05:52:31.788Z,25.30
2019-06-27T05:55:02.592Z,25.30
2019-06-27T05:57:34.101Z,25.30
2019-06-27T06:00:05.076Z,25.40
2019-06-27T06:02:36.533Z,25.50
2019-06-27T06:05:08.504Z,25.60
2019-06-27T06:07:39.956Z,25.70
2019-06-27T06:10:11.574Z,25.80
2019-06-27T06:12:42.906Z,25.80
2019-06-27T06:15:15.339Z,25.90
2019-06-27T06:17:47.656Z,25.90
2019-06-27T06:20:20.208Z,25.90
2019-06-27T06:22:51.483Z,26.00
2019-06-27T06:25:23.058Z,26.00
2019-06-27T06:27:54.436Z,26.10
2019-06-27T06:30:25.561Z,26.20
2019-06-27T06:32:56.675Z,26.30
2019-06-27T06:35:27.918Z,26.40
2019-06-27T06:37:59.167Z,26.40
2019-06-27T06:40:30.428Z,26.60
2019-06-27T06:43:01.388Z,26.80
2019-06-27T06:45:32.455Z,26.90
2019-06-27T06:48:03.411Z,27.00
2019-06-27T06:50:34.531Z,27.20
2019-06-27T06:53:05.762Z,27.50
2019-06-27T06:55:36.716Z,27.60
2019-06-27T06:58:07.774Z,27.70
2019-06-27T07:01:00.351Z,27.80
2019-06-27T07:03:17.634Z,27.90
2019-06-27T07:05:53.597Z,28.00
2019-06-27T07:08:24.808Z,28.10
2019-06-27T07:10:56.068Z,28.20
2019-06-27T07:13:27.371Z,28.20
2019-06-27T07:15:59.333Z,28.40
2019-06-27T07:18:31.166Z,28.40
2019-06-27T07:21:02.817Z,28.50
2019-06-27T07:23:34.010Z,28.50
2019-06-27T07:26:05.111Z,28.70
2019-06-27T07:28:36.345Z,28.80
2019-06-27T07:31:17.169Z,28.80
2019-06-27T07:33:40.259Z,28.80
2019-06-27T07:36:11.164Z,29.00
2019-06-27T07:38:42.580Z,29.10
2019-06-27T07:41:13.622Z,29.10
2019-06-27T07:43:44.794Z,29.20
2019-06-27T07:46:25.054Z,29.20
2019-06-27T07:48:49.012Z,29.30
2019-06-27T07:51:20.116Z,29.50
2019-06-27T07:53:51.249Z,29.50
2019-06-27T07:56:22.634Z,29.50
2019-06-27T07:58:53.723Z,29.70
2019-06-27T08:01:34.370Z,29.70
2019-06-27T08:03:57.727Z,29.70
2019-06-27T08:06:28.923Z,29.80
2019-06-27T08:09:01.073Z,30.00
2019-06-27T08:11:33.869Z,30.00
2019-06-27T08:14:04.876Z,29.90
2019-06-27T08:16:35.990Z,30.00
2019-06-27T08:19:06.877Z,30.10
2019-06-27T08:21:37.787Z,30.30
2019-06-27T08:24:11.908Z,30.30
2019-06-27T08:26:43.353Z,30.50
2019-06-27T08:29:14.599Z,30.50
2019-06-27T08:32:06.072Z,30.50
2019-06-27T08:34:37.174Z,30.50
2019-06-27T08:37:08.394Z,30.70
2019-06-27T08:39:39.544Z,30.80
2019-06-27T08:42:10.481Z,31.00
2019-06-27T08:44:41.863Z,31.10
2019-06-27T08:47:14.396Z,31.00
2019-06-27T08:49:45.544Z,31.10
2019-06-27T08:52:16.710Z,31.20
2019-06-27T08:54:47.823Z,31.20
2019-06-27T08:57:18.951Z,31.20
2019-06-27T08:59:50.174Z,31.20
2019-06-27T09:02:21.227Z,31.20
2019-06-27T09:04:52.374Z,31.20
2019-06-27T09:07:23.453Z,31.30
2019-06-27T09:09:54.878Z,31.30
2019-06-27T09:12:26.238Z,31.20
2019-06-27T09:14:57.623Z,31.20
2019-06-27T09:17:28.858Z,31.30
2019-06-27T09:20:00.178Z,31.50
2019-06-27T09:22:31.304Z,31.50
2019-06-27T09:25:03.272Z,31.60
2019-06-27T09:27:34.392Z,31.50
2019-06-27T09:30:09.014Z,31.40
2019-06-27T09:32:40.083Z,31.30
2019-06-27T09:35:11.529Z,31.50
2019-06-27T09:37:42.821Z,31.50
2019-06-27T09:40:14.200Z,31.40
2019-06-27T09:42:45.249Z,31.50
2019-06-27T09:45:17.822Z,31.40
2019-06-27T09:47:48.874Z,31.50
2019-06-27T09:50:21.773Z,31.50
2019-06-27T09:52:53.068Z,31.60
2019-06-27T09:55:24.371Z,31.60
2019-06-27T09:57:55.736Z,31.60
2019-06-27T10:00:29.158Z,31.70
2019-06-27T10:03:01.118Z,31.50
2019-06-27T10:05:32.492Z,31.20
2019-06-27T10:08:03.454Z,30.80
2019-06-27T10:10:34.538Z,31.00
2019-06-27T10:13:05.758Z,31.20
2019-06-27T10:15:36.918Z,31.10
2019-06-27T10:18:08.024Z,31.20
2019-06-27T10:20:39.361Z,31.20
2019-06-27T10:23:10.823Z,31.30
2019-06-27T10:25:41.993Z,31.20
2019-06-27T10:28:13.436Z,31.00
2019-06-27T10:30:44.618Z,31.20
2019-06-27T10:33:15.880Z,31.30
2019-06-27T10:35:47.011Z,31.00
2019-06-27T10:38:18.343Z,31.00
2019-06-27T10:40:49.460Z,31.10
2019-06-27T10:43:20.756Z,31.20
2019-06-27T10:45:52.315Z,31.30
2019-06-27T10:48:23.507Z,31.20
2019-06-27T10:50:54.910Z,31.20
2019-06-27T10:53:27.160Z,31.00
2019-06-27T10:55:58.222Z,31.00
2019-06-27T10:58:29.408Z,31.30
2019-06-27T11:01:01.431Z,31.40
2019-06-27T11:03:32.723Z,31.50
2019-06-27T11:06:07.093Z,31.30
2019-06-27T11:08:38.556Z,31.30
2019-06-27T11:11:09.446Z,31.30
2019-06-27T11:13:40.632Z,31.30
2019-06-27T11:16:11.909Z,31.30
2019-06-27T11:18:43.129Z,31.10
2019-06-27T11:21:14.269Z,31.10
2019-06-27T11:23:45.332Z,31.10
2019-06-27T11:26:16.598Z,30.90
2019-06-27T11:28:47.858Z,31.10
2019-06-27T11:31:19.109Z,31.20
2019-06-27T11:33:50.261Z,31.40
2019-06-27T11:36:21.797Z,31.40
2019-06-27T11:38:53.145Z,31.50
2019-06-27T11:41:24.368Z,31.60
2019-06-27T11:43:55.534Z,31.70
2019-06-27T11:46:26.816Z,31.80
2019-06-27T11:48:57.944Z,31.30
2019-06-27T11:51:29.300Z,31.50
2019-06-27T11:54:04.669Z,31.70
2019-06-27T11:56:36.050Z,31.70
2019-06-27T11:59:07.349Z,31.70
2019-06-27T12:01:38.437Z,32.10
2019-06-27T12:04:09.333Z,32.40
2019-06-27T12:06:40.584Z,32.40
2019-06-27T12:09:11.356Z,32.30
2019-06-27T12:11:42.630Z,32.60
2019-06-27T12:14:14.097Z,32.60
2019-06-27T12:16:45.202Z,32.80
2019-06-27T12:19:16.421Z,33.00
2019-06-27T12:21:47.625Z,32.70
2019-06-27T12:24:18.962Z,32.90
2019-06-27T12:26:50.111Z,33.00
2019-06-27T12:29:22.515Z,33.10
2019-06-27T12:31:57.491Z,33.10
2019-06-27T12:34:28.621Z,33.30
2019-06-27T12:36:59.858Z,33.40
2019-06-27T12:39:31.187Z,33.50
2019-06-27T12:42:02.203Z,33.70
2019-06-27T12:44:33.308Z,33.60
2019-06-27T12:47:05.195Z,33.60
2019-06-27T12:49:50.110Z,33.40
2019-06-27T12:52:09.250Z,33.60
2019-06-27T12:54:40.530Z,33.70
2019-06-27T12:57:14.567Z,33.60
2019-06-27T12:59:45.927Z,33.80
2019-06-27T13:02:17.232Z,33.70
2019-06-27T13:04:48.452Z,33.80
2019-06-27T13:07:19.743Z,33.90
2019-06-27T13:09:50.823Z,33.70
2019-06-27T13:12:22.293Z,34.00
2019-06-27T13:14:53.481Z,34.10
2019-06-27T13:17:24.738Z,34.20
2019-06-27T13:19:55.932Z,34.10
2019-06-27T13:22:26.966Z,33.90
2019-06-27T13:24:57.969Z,34.00
2019-06-27T13:27:29.201Z,34.40
2019-06-27T13:30:00.529Z,34.60
2019-06-27T13:32:32.824Z,35.40
2019-06-27T13:35:04.997Z,36.00
2019-06-27T13:37:36.127Z,36.50
2019-06-27T13:40:08.591Z,36.80
2019-06-27T13:42:39.872Z,36.90
2019-06-27T13:45:10.740Z,37.20
2019-06-27T13:47:42.040Z,37.10
2019-06-27T13:50:14.493Z,37.10
2019-06-27T13:52:45.602Z,37.00
2019-06-27T13:55:16.988Z,37.00
2019-06-27T13:57:48.231Z,37.20
2019-06-27T14:00:27.685Z,37.20
2019-06-27T14:02:58.956Z,37.20
2019-06-27T14:05:30.137Z,37.00
2019-06-27T14:08:01.793Z,37.30
2019-06-27T14:10:33.216Z,37.30
2019-06-27T14:13:04.238Z,38.00
2019-06-27T14:15:35.472Z,37.70
2019-06-27T14:18:06.556Z,37.30
2019-06-27T14:20:37.909Z,37.60
2019-06-27T14:23:08.761Z,37.50
2019-06-27T14:25:40.045Z,37.90
2019-06-27T14:28:10.980Z,38.10
2019-06-27T14:30:42.121Z,37.00
2019-06-27T14:33:13.595Z,37.80
2019-06-27T14:35:45.772Z,37.80
2019-06-27T14:38:16.845Z,36.80
2019-06-27T14:40:48.146Z,36.50
2019-06-27T14:43:19.580Z,36.60
2019-06-27T14:45:50.930Z,37.00
2019-06-27T14:48:22.394Z,37.40
2019-06-27T14:50:53.557Z,37.10
2019-06-27T14:53:24.736Z,37.10
2019-06-27T14:55:55.972Z,37.10
2019-06-27T14:58:27.443Z,36.70
2019-06-27T15:01:04.713Z,36.40
2019-06-27T15:03:36.443Z,35.90
2019-06-27T15:06:07.451Z,35.30
2019-06-27T15:08:38.584Z,34.30
2019-06-27T15:11:09.319Z,33.40
2019-06-27T15:13:40.806Z,33.30
2019-06-27T15:16:12.687Z,33.20
2019-06-27T15:18:44.449Z,33.00
2019-06-27T15:21:15.504Z,33.10
2019-06-27T15:23:46.988Z,33.20
2019-06-27T15:26:17.945Z,33.20
2019-06-27T15:28:49.117Z,33.00
2019-06-27T15:31:22.358Z,33.00
2019-06-27T15:33:56.704Z,33.00
2019-06-27T15:36:27.877Z,32.90
2019-06-27T15:38:59.048Z,32.70
2019-06-27T15:41:30.113Z,32.60
2019-06-27T15:44:01.987Z,32.70
2019-06-27T15:46:33.053Z,32.70
2019-06-27T15:49:07.234Z,32.70
2019-06-27T15:51:38.617Z,32.40
2019-06-27T15:54:09.567Z,32.30
2019-06-27T15:56:40.948Z,32.40
2019-06-27T15:59:12.213Z,32.30
2019-06-27T16:01:43.293Z,32.30
2019-06-27T16:04:27.888Z,32.40
2019-06-27T16:06:48.510Z,32.20
2019-06-27T16:09:19.628Z,32.30
2019-06-27T16:11:50.690Z,32.20
2019-06-27T16:14:21.984Z,32.10
2019-06-27T16:16:53.147Z,32.10
2019-06-27T16:19:24.359Z,32.10
2019-06-27T16:21:56.071Z,32.10
2019-06-27T16:24:27.193Z,32.10
2019-06-27T16:26:58.419Z,32.10
2019-06-27T16:29:29.593Z,32.10
2019-06-27T16:32:00.870Z,31.90
2019-06-27T16:34:32.445Z,31.90
2019-06-27T16:37:03.449Z,31.90
2019-06-27T16:39:34.713Z,31.90
2019-06-27T16:42:05.503Z,31.90
2019-06-27T16:44:36.931Z,31.90
2019-06-27T16:47:07.685Z,32.00
2019-06-27T16:49:38.867Z,32.00
2019-06-27T16:52:10.346Z,32.00
2019-06-27T16:54:41.467Z,32.10
2019-06-27T16:57:12.749Z,32.00
2019-06-27T16:59:43.814Z,31.90
2019-06-27T17:02:15.275Z,31.90
2019-06-27T17:04:54.995Z,31.90
2019-06-27T17:07:26.268Z,31.80
2019-06-27T17:09:57.615Z,31.80
2019-06-27T17:12:31.039Z,31.80
2019-06-27T17:15:03.283Z,31.70
2019-06-27T17:17:34.782Z,31.70
2019-06-27T17:20:05.976Z,31.60
2019-06-27T17:22:37.045Z,31.50
2019-06-27T17:25:08.972Z,31.50
2019-06-27T17:27:40.131Z,31.50
2019-06-27T17:30:13.450Z,31.50
2019-06-27T17:32:44.635Z,31.40
2019-06-27T17:35:16.049Z,31.40
2019-06-27T17:37:47.174Z,31.40
2019-06-27T17:40:19.000Z,31.40
2019-06-27T17:42:50.357Z,31.30
2019-06-27T17:45:21.771Z,31.30
2019-06-27T17:47:53.145Z,31.10
2019-06-27T17:50:24.356Z,30.80
2019-06-27T17:52:55.550Z,30.80
2019-06-27T17:55:26.948Z,30.80
2019-06-27T17:57:58.103Z,30.80
2019-06-27T18:00:29.361Z,30.80
2019-06-27T18:03:00.684Z,30.60
2019-06-27T18:05:32.064Z,30.50
2019-06-27T18:08:03.245Z,30.30
2019-06-27T18:10:34.661Z,30.20
2019-06-27T18:13:06.341Z,30.00
2019-06-27T18:15:40.861Z,29.90
2019-06-27T18:18:11.980Z,29.90
2019-06-27T18:20:43.423Z,29.90
2019-06-27T18:23:14.871Z,29.70
2019-06-27T18:25:46.214Z,29.50
2019-06-27T18:28:17.212Z,29.50
2019-06-27T18:30:48.921Z,29.50
2019-06-27T18:33:20.218Z,29.30
2019-06-27T18:35:55.691Z,29.20
2019-06-27T18:38:27.129Z,29.00
2019-06-27T18:40:59.612Z,29.10
2019-06-27T18:43:30.697Z,29.00
2019-06-27T18:46:02.630Z,28.90
2019-06-27T18:48:34.077Z,28.90
2019-06-27T18:51:05.112Z,28.90
2019-06-27T18:53:36.983Z,28.90
2019-06-27T18:56:08.634Z,28.80
2019-06-27T18:58:40.034Z,28.90
2019-06-27T19:01:10.882Z,28.70
2019-06-27T19:03:42.261Z,28.80
2019-06-27T19:06:13.814Z,28.90
2019-06-27T19:08:45.260Z,28.60
2019-06-27T19:11:16.961Z,28.70
2019-06-27T19:13:48.553Z,28.80
2019-06-27T19:16:21.012Z,28.70
2019-06-27T19:18:57.022Z,28.60
2019-06-27T19:21:59.383Z,28.70
2019-06-27T19:24:38.246Z,28.70
2019-06-27T19:27:09.226Z,28.80
2019-06-27T19:29:40.505Z,28.80
2019-06-27T19:32:11.672Z,28.70
2019-06-27T19:34:42.776Z,28.70
2019-06-27T19:37:14.215Z,28.70
2019-06-27T19:39:47.243Z,28.70
2019-06-27T19:42:18.487Z,28.70
2019-06-27T19:44:49.684Z,28.80
2019-06-27T19:47:21.028Z,28.80
2019-06-27T19:49:52.182Z,28.70
2019-06-27T19:52:23.443Z,28.70
2019-06-27T19:54:54.939Z,28.60
2019-06-27T19:57:26.591Z,28.70
2019-06-27T19:59:57.813Z,28.70
2019-06-27T20:02:28.888Z,28.60
2019-06-27T20:05:00.226Z,28.70
2019-06-27T20:07:31.845Z,28.70
2019-06-27T20:10:11.533Z,28.60
2019-06-27T20:12:41.602Z,28.60
2019-06-27T20:15:12.785Z,28.50
2019-06-27T20:17:44.225Z,28.50
2019-06-27T20:20:16.892Z,28.40
2019-06-27T20:22:48.240Z,28.30
2019-06-27T20:25:19.711Z,28.30
2019-06-27T20:27:51.085Z,28.30
2019-06-27T20:30:23.002Z,28.30
2019-06-27T20:32:54.555Z,28.20
2019-06-27T20:35:25.898Z,28.20
2019-06-27T20:37:57.032Z,28.30
2019-06-27T20:40:28.825Z,28.30
2019-06-27T20:43:00.020Z,28.10
2019-06-27T20:45:31.288Z,28.10
2019-06-27T20:48:02.803Z,28.10
2019-06-27T20:50:34.053Z,28.00
2019-06-27T20:53:05.407Z,27.90
2019-06-27T20:55:37.346Z,28.00
2019-06-27T20:58:08.154Z,28.00
2019-06-27T21:00:39.286Z,28.00
2019-06-27T21:03:11.065Z,28.00
2019-06-27T21:05:42.284Z,27.90
2019-06-27T21:08:13.412Z,27.90
2019-06-27T21:10:45.812Z,28.00
2019-06-27T21:13:17.495Z,28.10
2019-06-27T21:15:50.484Z,28.10
2019-06-27T21:18:21.572Z,28.10
2019-06-27T21:20:52.870Z,28.00
2019-06-27T21:23:24.183Z,27.90
2019-06-27T21:25:55.400Z,27.80
2019-06-27T21:28:26.834Z,27.70
2019-06-27T21:30:59.011Z,27.70
2019-06-27T21:33:30.313Z,27.70
2019-06-27T21:36:01.866Z,27.80
2019-06-27T21:38:36.965Z,27.80
2019-06-27T21:41:08.298Z,27.70
2019-06-27T21:43:39.513Z,27.80
2019-06-27T21:46:10.403Z,27.90
2019-06-27T21:48:41.796Z,27.90
2019-06-27T21:51:13.310Z,28.00
2019-06-27T21:53:44.670Z,28.00
2019-06-27T21:56:16.025Z,27.90
2019-06-27T21:58:47.271Z,27.80
2019-06-27T22:01:18.398Z,27.60
2019-06-27T22:03:49.565Z,27.50
2019-06-27T22:06:22.827Z,27.60
2019-06-27T22:08:54.374Z,27.70
2019-06-27T22:11:25.670Z,27.70
2019-06-27T22:13:56.871Z,27.60
2019-06-27T22:16:27.915Z,27.60
2019-06-27T22:18:59.260Z,27.60
2019-06-27T22:21:30.670Z,27.70
2019-06-27T22:24:03.254Z,27.70
2019-06-27T22:26:35.455Z,27.60
2019-06-27T22:29:06.709Z,27.60
2019-06-27T22:31:37.980Z,27.60
2019-06-27T22:34:09.013Z,27.60
2019-06-27T22:36:40.332Z,27.60
2019-06-27T22:39:40.047Z,27.50
2019-06-27T22:42:19.555Z,27.50
2019-06-27T22:45:08.209Z,27.50
2019-06-27T22:47:58.130Z,27.50
2019-06-27T22:50:48.936Z,27.50
2019-06-27T22:53:22.594Z,27.30
2019-06-27T22:55:54.018Z,27.30
2019-06-27T22:58:25.526Z,27.30
2019-06-27T23:00:56.783Z,27.20
2019-06-27T23:03:28.133Z,27.30
2019-06-27T23:05:59.201Z,27.20
2019-06-27T23:08:30.524Z,27.20
2019-06-27T23:11:01.817Z,27.20
2019-06-27T23:13:32.887Z,27.10
2019-06-27T23:16:03.797Z,26.90
2019-06-27T23:18:34.988Z,26.80
2019-06-27T23:21:06.188Z,26.90
2019-06-27T23:23:37.302Z,27.00
2019-06-27T23:26:08.320Z,27.00
2019-06-27T23:28:39.480Z,26.90
2019-06-27T23:31:10.734Z,27.00
2019-06-27T23:33:41.798Z,26.90
2019-06-27T23:36:12.849Z,26.90
2019-06-27T23:38:43.905Z,26.90
2019-06-27T23:41:24.051Z,26.90
2019-06-27T23:43:55.107Z,26.90
2019-06-27T23:46:42.694Z,26.80
2019-06-27T23:49:13.594Z,26.80
2019-06-27T23:51:44.759Z,26.70
2019-06-27T23:54:16.082Z,26.70
2019-06-27T23:56:47.121Z,26.70
2019-06-27T23:59:18.153Z,26.70
